sensor_id;sensor_type;location;lat;lon;timestamp;pressure;altitude;pressure_sealevel;temperature;humidity
55032;BME280;40928;51.076;7.950;2023-04-24T00:02:17;95658.19;;;8.40;100.00
55032;BME280;40928;51.076;7.950;2023-04-24T00:04:44;95663.06;;;8.53;100.00
55032;BME280;40928;51.076;7.950;2023-04-24T00:07:14;95658.53;;;8.53;100.00
55032;BME280;40928;51.076;7.950;2023-04-24T00:09:43;95656.38;;;8.45;100.00
55032;BME280;40928;51.076;7.950;2023-04-24T00:12:09;95654.00;;;8.49;100.00
55032;BME280;40928;51.076;7.950;2023-04-24T00:14:35;95655.06;;;8.48;100.00
55032;BME280;40928;51.076;7.950;2023-04-24T00:17:01;95647.13;;;8.53;100.00
55032;BME280;40928;51.076;7.950;2023-04-24T00:19:28;95646.03;;;8.49;100.00
55032;BME280;40928;51.076;7.950;2023-04-24T00:21:54;95643.09;;;8.50;100.00
55032;BME280;40928;51.076;7.950;2023-04-24T00:24:20;95637.78;;;8.50;100.00
55032;BME280;40928;51.076;7.950;2023-04-24T00:26:46;95638.59;;;8.51;100.00
55032;BME280;40928;51.076;7.950;2023-04-24T00:29:12;95627.44;;;8.54;100.00
55032;BME280;40928;51.076;7.950;2023-04-24T00:31:37;95625.81;;;8.53;100.00
55032;BME280;40928;51.076;7.950;2023-04-24T00:34:03;95627.97;;;8.61;100.00
55032;BME280;40928;51.076;7.950;2023-04-24T00:36:30;95635.19;;;8.61;100.00
55032;BME280;40928;51.076;7.950;2023-04-24T00:38:56;95634.66;;;8.64;100.00
55032;BME280;40928;51.076;7.950;2023-04-24T00:41:23;95630.63;;;8.56;100.00
55032;BME280;40928;51.076;7.950;2023-04-24T00:43:49;95634.34;;;8.60;100.00
55032;BME280;40928;51.076;7.950;2023-04-24T00:46:16;95632.75;;;8.59;100.00
55032;BME280;40928;51.076;7.950;2023-04-24T00:48:42;95634.34;;;8.55;100.00
55032;BME280;40928;51.076;7.950;2023-04-24T00:51:08;95632.47;;;8.56;100.00
55032;BME280;40928;51.076;7.950;2023-04-24T00:53:33;95634.88;;;8.52;100.00
55032;BME280;40928;51.076;7.950;2023-04-24T00:55:59;95631.66;;;8.50;100.00
55032;BME280;40928;51.076;7.950;2023-04-24T00:58:25;95624.75;;;8.49;100.00
55032;BME280;40928;51.076;7.950;2023-04-24T01:00:52;95632.22;;;8.52;100.00
55032;BME280;40928;51.076;7.950;2023-04-24T01:03:24;95632.44;;;8.50;100.00
55032;BME280;40928;51.076;7.950;2023-04-24T01:05:52;95620.41;;;8.37;100.00
55032;BME280;40928;51.076;7.950;2023-04-24T01:08:18;95626.53;;;8.38;100.00
55032;BME280;40928;51.076;7.950;2023-04-24T01:10:44;95622.53;;;8.35;100.00
55032;BME280;40928;51.076;7.950;2023-04-24T01:13:11;95616.94;;;8.32;100.00
55032;BME280;40928;51.076;7.950;2023-04-24T01:15:36;95630.47;;;8.25;100.00
55032;BME280;40928;51.076;7.950;2023-04-24T01:18:02;95617.13;;;8.20;100.00
55032;BME280;40928;51.076;7.950;2023-04-24T01:20:28;95612.88;;;8.19;100.00
55032;BME280;40928;51.076;7.950;2023-04-24T01:22:55;95622.97;;;8.17;100.00
55032;BME280;40928;51.076;7.950;2023-04-24T01:25:22;95613.69;;;8.25;100.00
55032;BME280;40928;51.076;7.950;2023-04-24T01:27:48;95624.59;;;8.23;100.00
55032;BME280;40928;51.076;7.950;2023-04-24T01:30:14;95623.47;;;8.14;100.00
55032;BME280;40928;51.076;7.950;2023-04-24T01:32:40;95620.84;;;8.19;100.00
55032;BME280;40928;51.076;7.950;2023-04-24T01:35:09;95610.72;;;8.16;100.00
55032;BME280;40928;51.076;7.950;2023-04-24T01:37:35;95613.13;;;8.17;100.00
55032;BME280;40928;51.076;7.950;2023-04-24T01:40:04;95618.78;;;8.31;100.00
55032;BME280;40928;51.076;7.950;2023-04-24T01:42:30;95609.97;;;8.26;100.00
55032;BME280;40928;51.076;7.950;2023-04-24T01:44:56;95616.63;;;8.23;100.00
55032;BME280;40928;51.076;7.950;2023-04-24T01:47:23;95601.09;;;8.04;100.00
55032;BME280;40928;51.076;7.950;2023-04-24T01:49:50;95605.97;;;8.23;100.00
55032;BME280;40928;51.076;7.950;2023-04-24T01:52:16;95612.31;;;8.17;100.00
55032;BME280;40928;51.076;7.950;2023-04-24T01:54:43;95608.34;;;8.14;100.00
55032;BME280;40928;51.076;7.950;2023-04-24T01:57:08;95609.13;;;8.15;100.00
55032;BME280;40928;51.076;7.950;2023-04-24T01:59:34;95601.16;;;8.15;100.00
55032;BME280;40928;51.076;7.950;2023-04-24T02:02:04;95598.22;;;8.11;100.00
55032;BME280;40928;51.076;7.950;2023-04-24T02:04:30;95594.81;;;8.21;100.00
55032;BME280;40928;51.076;7.950;2023-04-24T02:06:56;95593.69;;;8.12;100.00
55032;BME280;40928;51.076;7.950;2023-04-24T02:09:23;95598.44;;;8.04;100.00
55032;BME280;40928;51.076;7.950;2023-04-24T02:11:49;95599.53;;;8.14;100.00
55032;BME280;40928;51.076;7.950;2023-04-24T02:14:17;95607.50;;;8.08;100.00
55032;BME280;40928;51.076;7.950;2023-04-24T02:16:42;95609.63;;;8.12;100.00
55032;BME280;40928;51.076;7.950;2023-04-24T02:19:09;95607.81;;;8.17;100.00
55032;BME280;40928;51.076;7.950;2023-04-24T02:21:34;95606.47;;;8.15;100.00
55032;BME280;40928;51.076;7.950;2023-04-24T02:24:00;95612.31;;;8.17;100.00
55032;BME280;40928;51.076;7.950;2023-04-24T02:26:26;95615.25;;;8.15;100.00
55032;BME280;40928;51.076;7.950;2023-04-24T02:28:52;95606.50;;;8.20;100.00
55032;BME280;40928;51.076;7.950;2023-04-24T02:31:19;95615.53;;;8.19;100.00
55032;BME280;40928;51.076;7.950;2023-04-24T02:33:47;95607.81;;;8.17;100.00
55032;BME280;40928;51.076;7.950;2023-04-24T02:36:12;95608.66;;;8.23;100.00
55032;BME280;40928;51.076;7.950;2023-04-24T02:38:38;95611.81;;;8.20;100.00
55032;BME280;40928;51.076;7.950;2023-04-24T02:41:04;95616.63;;;8.23;100.00
55032;BME280;40928;51.076;7.950;2023-04-24T02:43:32;95612.63;;;8.26;100.00
55032;BME280;40928;51.076;7.950;2023-04-24T02:45:58;95605.44;;;8.26;100.00
55032;BME280;40928;51.076;7.950;2023-04-24T02:48:24;95611.00;;;8.19;100.00
55032;BME280;40928;51.076;7.950;2023-04-24T02:50:50;95620.34;;;8.27;100.00
55032;BME280;40928;51.076;7.950;2023-04-24T02:53:16;95615.28;;;8.26;100.00
55032;BME280;40928;51.076;7.950;2023-04-24T02:55:42;95608.59;;;8.18;100.00
55032;BME280;40928;51.076;7.950;2023-04-24T02:58:07;95605.69;;;8.19;100.00
55032;BME280;40928;51.076;7.950;2023-04-24T03:00:33;95641.03;;;8.15;100.00
55032;BME280;40928;51.076;7.950;2023-04-24T03:02:59;95635.91;;;8.03;100.00
55032;BME280;40928;51.076;7.950;2023-04-24T03:05:25;95643.03;;;7.97;100.00
55032;BME280;40928;51.076;7.950;2023-04-24T03:07:50;95645.34;;;7.83;100.00
55032;BME280;40928;51.076;7.950;2023-04-24T03:10:18;95659.94;;;7.81;100.00
55032;BME280;40928;51.076;7.950;2023-04-24T03:12:43;95649.53;;;7.74;100.00
55032;BME280;40928;51.076;7.950;2023-04-24T03:15:09;95635.41;;;7.68;100.00
55032;BME280;40928;51.076;7.950;2023-04-24T03:17:36;95639.13;;;7.67;100.00
55032;BME280;40928;51.076;7.950;2023-04-24T03:20:02;95638.84;;;7.64;100.00
55032;BME280;40928;51.076;7.950;2023-04-24T03:22:30;95644.34;;;7.57;100.00
55032;BME280;40928;51.076;7.950;2023-04-24T03:24:58;95642.25;;;7.59;100.00
55032;BME280;40928;51.076;7.950;2023-04-24T03:27:24;95645.13;;;7.52;100.00
55032;BME280;40928;51.076;7.950;2023-04-24T03:30:01;95643.19;;;7.47;100.00
55032;BME280;40928;51.076;7.950;2023-04-24T03:32:50;95656.13;;;7.34;100.00
55032;BME280;40928;51.076;7.950;2023-04-24T03:35:21;95655.06;;;7.35;100.00
55032;BME280;40928;51.076;7.950;2023-04-24T03:37:47;95652.34;;;7.29;100.00
55032;BME280;40928;51.076;7.950;2023-04-24T03:40:45;95657.16;;;7.32;100.00
55032;BME280;40928;51.076;7.950;2023-04-24T03:43:31;95659.25;;;7.30;100.00
55032;BME280;40928;51.076;7.950;2023-04-24T03:45:59;95649.13;;;7.27;100.00
55032;BME280;40928;51.076;7.950;2023-04-24T03:48:25;95662.75;;;7.31;100.00
55032;BME280;40928;51.076;7.950;2023-04-24T03:50:51;95659.56;;;7.34;100.00
55032;BME280;40928;51.076;7.950;2023-04-24T03:53:16;95666.97;;;7.32;100.00
55032;BME280;40928;51.076;7.950;2023-04-24T03:55:43;95669.63;;;7.32;100.00
55032;BME280;40928;51.076;7.950;2023-04-24T03:58:09;95678.16;;;7.34;100.00
55032;BME280;40928;51.076;7.950;2023-04-24T04:00:35;95675.19;;;7.30;100.00
55032;BME280;40928;51.076;7.950;2023-04-24T04:03:31;95684.00;;;7.36;100.00
55032;BME280;40928;51.076;7.950;2023-04-24T04:05:57;95682.41;;;7.35;100.00
55032;BME280;40928;51.076;7.950;2023-04-24T04:08:23;95688.72;;;7.29;100.00
55032;BME280;40928;51.076;7.950;2023-04-24T04:10:48;95689.97;;;7.21;100.00
55032;BME280;40928;51.076;7.950;2023-04-24T04:13:14;95700.19;;;7.07;100.00
55032;BME280;40928;51.076;7.950;2023-04-24T04:15:40;95695.22;;;7.16;100.00
55032;BME280;40928;51.076;7.950;2023-04-24T04:18:06;95699.44;;;7.12;100.00
55032;BME280;40928;51.076;7.950;2023-04-24T04:20:32;95703.28;;;6.99;100.00
55032;BME280;40928;51.076;7.950;2023-04-24T04:22:58;95697.22;;;7.04;100.00
55032;BME280;40928;51.076;7.950;2023-04-24T04:25:35;95717.06;;;6.96;100.00
55032;BME280;40928;51.076;7.950;2023-04-24T04:28:01;95699.72;;;6.88;100.00
55032;BME280;40928;51.076;7.950;2023-04-24T04:30:27;95699.84;;;6.76;100.00
55032;BME280;40928;51.076;7.950;2023-04-24T04:33:00;95702.38;;;6.66;100.00
55032;BME280;40928;51.076;7.950;2023-04-24T04:35:26;95700.75;;;6.65;100.00
55032;BME280;40928;51.076;7.950;2023-04-24T04:37:52;95708.75;;;6.70;100.00
55032;BME280;40928;51.076;7.950;2023-04-24T04:40:33;95711.19;;;6.72;100.00
55032;BME280;40928;51.076;7.950;2023-04-24T04:43:02;95718.28;;;6.66;100.00
55032;BME280;40928;51.076;7.950;2023-04-24T04:45:34;95724.19;;;6.73;100.00
55032;BME280;40928;51.076;7.950;2023-04-24T04:48:25;95721.25;;;6.69;100.00
55032;BME280;40928;51.076;7.950;2023-04-24T04:50:51;95717.47;;;6.65;100.00
55032;BME280;40928;51.076;7.950;2023-04-24T04:53:18;95716.41;;;6.66;100.00
55032;BME280;40928;51.076;7.950;2023-04-24T04:55:44;95715.84;;;6.64;100.00
55032;BME280;40928;51.076;7.950;2023-04-24T04:58:13;95719.16;;;6.72;100.00
55032;BME280;40928;51.076;7.950;2023-04-24T05:00:38;95723.50;;;6.61;100.00
55032;BME280;40928;51.076;7.950;2023-04-24T05:03:15;95721.59;;;6.56;100.00
55032;BME280;40928;51.076;7.950;2023-04-24T05:05:41;95718.13;;;6.55;100.00
55032;BME280;40928;51.076;7.950;2023-04-24T05:08:10;95725.56;;;6.53;100.00
55032;BME280;40928;51.076;7.950;2023-04-24T05:10:36;95728.22;;;6.53;100.00
55032;BME280;40928;51.076;7.950;2023-04-24T05:13:03;95714.13;;;6.53;100.00
55032;BME280;40928;51.076;7.950;2023-04-24T05:15:30;95724.34;;;6.61;100.00
55032;BME280;40928;51.076;7.950;2023-04-24T05:17:57;95727.78;;;6.62;100.00
55032;BME280;40928;51.076;7.950;2023-04-24T05:20:23;95720.78;;;6.55;100.00
55032;BME280;40928;51.076;7.950;2023-04-24T05:22:49;95726.03;;;6.50;100.00
55032;BME280;40928;51.076;7.950;2023-04-24T05:25:15;95729.56;;;6.39;100.00
55032;BME280;40928;51.076;7.950;2023-04-24T05:27:46;95737.53;;;6.39;100.00
55032;BME280;40928;51.076;7.950;2023-04-24T05:30:14;95737.47;;;6.34;100.00
55032;BME280;40928;51.076;7.950;2023-04-24T05:32:41;95738.44;;;6.28;100.00
55032;BME280;40928;51.076;7.950;2023-04-24T05:35:07;95735.38;;;6.36;100.00
55032;BME280;40928;51.076;7.950;2023-04-24T05:37:33;95740.81;;;6.46;100.00
55032;BME280;40928;51.076;7.950;2023-04-24T05:39:58;95742.75;;;6.51;100.00
55032;BME280;40928;51.076;7.950;2023-04-24T05:42:24;95740.34;;;6.49;100.00
55032;BME280;40928;51.076;7.950;2023-04-24T05:44:50;95738.09;;;6.41;100.00
55032;BME280;40928;51.076;7.950;2023-04-24T05:47:15;95742.69;;;6.46;100.00
55032;BME280;40928;51.076;7.950;2023-04-24T05:49:41;95746.13;;;6.46;100.00
55032;BME280;40928;51.076;7.950;2023-04-24T05:52:07;95747.72;;;6.47;100.00
55032;BME280;40928;51.076;7.950;2023-04-24T05:54:35;95747.00;;;6.52;100.00
55032;BME280;40928;51.076;7.950;2023-04-24T05:57:01;95747.88;;;6.58;100.00
55032;BME280;40928;51.076;7.950;2023-04-24T05:59:44;95743.47;;;6.46;100.00
55032;BME280;40928;51.076;7.950;2023-04-24T06:02:10;95757.53;;;6.47;100.00
55032;BME280;40928;51.076;7.950;2023-04-24T06:04:36;95760.25;;;6.52;100.00
55032;BME280;40928;51.076;7.950;2023-04-24T06:07:02;95750.47;;;6.52;100.00
55032;BME280;40928;51.076;7.950;2023-04-24T06:09:28;95748.59;;;6.53;100.00
55032;BME280;40928;51.076;7.950;2023-04-24T06:11:54;95755.22;;;6.50;100.00
55032;BME280;40928;51.076;7.950;2023-04-24T06:14:23;95752.56;;;6.50;100.00
55032;BME280;40928;51.076;7.950;2023-04-24T06:17:11;95748.38;;;6.37;100.00
55032;BME280;40928;51.076;7.950;2023-04-24T06:19:39;95753.53;;;6.44;100.00
55032;BME280;40928;51.076;7.950;2023-04-24T06:22:06;95749.13;;;6.33;100.00
55032;BME280;40928;51.076;7.950;2023-04-24T06:24:31;95752.91;;;6.37;100.00
55032;BME280;40928;51.076;7.950;2023-04-24T06:26:57;95743.09;;;6.37;100.00
55032;BME280;40928;51.076;7.950;2023-04-24T06:29:24;95748.69;;;6.41;100.00
55032;BME280;40928;51.076;7.950;2023-04-24T06:31:49;95750.66;;;6.46;100.00
55032;BME280;40928;51.076;7.950;2023-04-24T06:34:15;95743.00;;;6.49;100.00
55032;BME280;40928;51.076;7.950;2023-04-24T06:36:41;95744.59;;;6.50;100.00
55032;BME280;40928;51.076;7.950;2023-04-24T06:39:07;95743.03;;;6.54;100.00
55032;BME280;40928;51.076;7.950;2023-04-24T06:41:32;95747.19;;;6.45;100.00
55032;BME280;40928;51.076;7.950;2023-04-24T06:43:57;95748.66;;;6.36;100.00
55032;BME280;40928;51.076;7.950;2023-04-24T06:46:23;95750.78;;;6.39;100.00
55032;BME280;40928;51.076;7.950;2023-04-24T06:48:52;95753.59;;;6.49;100.00
55032;BME280;40928;51.076;7.950;2023-04-24T06:51:25;95742.44;;;6.47;100.00
55032;BME280;40928;51.076;7.950;2023-04-24T06:53:53;95741.38;;;6.48;100.00
55032;BME280;40928;51.076;7.950;2023-04-24T06:56:20;95735.66;;;6.57;100.00
55032;BME280;40928;51.076;7.950;2023-04-24T06:58:46;95744.00;;;6.65;100.00
55032;BME280;40928;51.076;7.950;2023-04-24T07:01:11;95735.72;;;6.62;100.00
55032;BME280;40928;51.076;7.950;2023-04-24T07:03:37;95738.88;;;6.59;100.00
55032;BME280;40928;51.076;7.950;2023-04-24T07:06:04;95728.50;;;6.57;100.00
55032;BME280;40928;51.076;7.950;2023-04-24T07:08:30;95725.44;;;6.65;100.00
55032;BME280;40928;51.076;7.950;2023-04-24T07:10:56;95735.38;;;6.75;100.00
55032;BME280;40928;51.076;7.950;2023-04-24T07:13:23;95732.09;;;6.68;100.00
55032;BME280;40928;51.076;7.950;2023-04-24T07:15:48;95739.44;;;6.61;100.00
55032;BME280;40928;51.076;7.950;2023-04-24T07:18:16;95742.53;;;6.75;100.00
55032;BME280;40928;51.076;7.950;2023-04-24T07:20:42;95731.28;;;6.67;100.00
55032;BME280;40928;51.076;7.950;2023-04-24T07:23:08;95743.19;;;6.65;100.00
55032;BME280;40928;51.076;7.950;2023-04-24T07:25:33;95741.66;;;6.69;100.00
55032;BME280;40928;51.076;7.950;2023-04-24T07:27:59;95740.13;;;6.73;100.00
55032;BME280;40928;51.076;7.950;2023-04-24T07:30:24;95753.31;;;6.68;100.00
55032;BME280;40928;51.076;7.950;2023-04-24T07:32:50;95761.34;;;6.73;100.00
55032;BME280;40928;51.076;7.950;2023-04-24T07:35:16;95753.72;;;6.60;100.00
55032;BME280;40928;51.076;7.950;2023-04-24T07:37:41;95766.50;;;6.63;100.00
55032;BME280;40928;51.076;7.950;2023-04-24T07:40:12;95764.25;;;6.72;100.00
55032;BME280;40928;51.076;7.950;2023-04-24T07:42:38;95764.06;;;6.78;100.00
55032;BME280;40928;51.076;7.950;2023-04-24T07:45:04;95761.72;;;6.82;100.00
55032;BME280;40928;51.076;7.950;2023-04-24T07:47:29;95768.72;;;6.71;100.00
55032;BME280;40928;51.076;7.950;2023-04-24T07:49:56;95757.59;;;6.69;100.00
55032;BME280;40928;51.076;7.950;2023-04-24T07:52:21;95774.69;;;6.78;100.00
55032;BME280;40928;51.076;7.950;2023-04-24T07:54:47;95774.69;;;6.78;100.00
55032;BME280;40928;51.076;7.950;2023-04-24T07:57:12;95788.53;;;6.63;100.00
55032;BME280;40928;51.076;7.950;2023-04-24T07:59:39;95782.59;;;6.56;100.00
55032;BME280;40928;51.076;7.950;2023-04-24T08:02:04;95765.38;;;6.59;100.00
55032;BME280;40928;51.076;7.950;2023-04-24T08:04:31;95790.72;;;6.49;100.00
55032;BME280;40928;51.076;7.950;2023-04-24T08:06:57;95771.69;;;6.52;100.00
55032;BME280;40928;51.076;7.950;2023-04-24T08:09:23;95789.28;;;6.42;100.00
55032;BME280;40928;51.076;7.950;2023-04-24T08:11:48;95789.50;;;6.40;100.00
55032;BME280;40928;51.076;7.950;2023-04-24T08:14:14;95775.22;;;6.41;100.00
55032;BME280;40928;51.076;7.950;2023-04-24T08:16:40;95790.00;;;6.54;100.00
55032;BME280;40928;51.076;7.950;2023-04-24T08:19:06;95787.09;;;6.55;100.00
55032;BME280;40928;51.076;7.950;2023-04-24T08:21:31;95794.81;;;6.57;100.00
55032;BME280;40928;51.076;7.950;2023-04-24T08:23:57;95793.81;;;6.63;100.00
55032;BME280;40928;51.076;7.950;2023-04-24T08:26:23;95804.78;;;6.50;100.00
55032;BME280;40928;51.076;7.950;2023-04-24T08:28:48;95788.00;;;6.44;100.00
55032;BME280;40928;51.076;7.950;2023-04-24T08:31:14;95796.84;;;6.33;100.00
55032;BME280;40928;51.076;7.950;2023-04-24T08:33:40;95795.63;;;6.40;100.00
55032;BME280;40928;51.076;7.950;2023-04-24T08:36:07;95808.16;;;6.45;100.00
55032;BME280;40928;51.076;7.950;2023-04-24T08:38:33;95804.31;;;6.36;100.00
55032;BME280;40928;51.076;7.950;2023-04-24T08:41:00;95814.75;;;6.43;100.00
55032;BME280;40928;51.076;7.950;2023-04-24T08:43:26;95818.06;;;6.33;100.00
55032;BME280;40928;51.076;7.950;2023-04-24T08:45:55;95818.94;;;6.38;100.00
55032;BME280;40928;51.076;7.950;2023-04-24T08:48:22;95818.22;;;6.43;100.00
55032;BME280;40928;51.076;7.950;2023-04-24T08:50:50;95829.94;;;6.47;100.00
55032;BME280;40928;51.076;7.950;2023-04-24T08:53:15;95826.81;;;6.33;100.00
55032;BME280;40928;51.076;7.950;2023-04-24T08:55:43;95830.66;;;6.25;100.00
55032;BME280;40928;51.076;7.950;2023-04-24T08:58:09;95832.41;;;6.03;100.00
55032;BME280;40928;51.076;7.950;2023-04-24T09:00:34;95853.31;;;6.16;100.00
55032;BME280;40928;51.076;7.950;2023-04-24T09:03:01;95858.66;;;6.04;100.00
55032;BME280;40928;51.076;7.950;2023-04-24T09:05:29;95864.63;;;5.83;100.00
55032;BME280;40928;51.076;7.950;2023-04-24T09:07:55;95880.75;;;5.81;100.00
55032;BME280;40928;51.076;7.950;2023-04-24T09:10:25;95876.63;;;5.73;100.00
55032;BME280;40928;51.076;7.950;2023-04-24T09:12:51;95877.03;;;5.53;100.00
55032;BME280;40928;51.076;7.950;2023-04-24T09:15:19;95887.91;;;5.40;100.00
55032;BME280;40928;51.076;7.950;2023-04-24T09:17:46;95881.91;;;5.44;100.00
55032;BME280;40928;51.076;7.950;2023-04-24T09:20:11;95878.34;;;5.51;100.00
55032;BME280;40928;51.076;7.950;2023-04-24T09:22:37;95891.44;;;5.57;100.00
55032;BME280;40928;51.076;7.950;2023-04-24T09:25:07;95894.09;;;5.57;100.00
55032;BME280;40928;51.076;7.950;2023-04-24T09:27:34;95890.03;;;5.55;100.00
55032;BME280;40928;51.076;7.950;2023-04-24T09:30:00;95896.50;;;5.47;100.00
55032;BME280;40928;51.076;7.950;2023-04-24T09:32:26;95891.31;;;5.52;100.00
55032;BME280;40928;51.076;7.950;2023-04-24T09:37:35;95898.94;;;5.37;100.00
55032;BME280;40928;51.076;7.950;2023-04-24T09:40:21;95913.94;;;5.19;100.00
55032;BME280;40928;51.076;7.950;2023-04-24T09:42:56;95913.16;;;5.18;100.00
55032;BME280;40928;51.076;7.950;2023-04-24T09:45:36;95904.38;;;5.06;100.00
55032;BME280;40928;51.076;7.950;2023-04-24T09:48:02;95922.56;;;5.02;100.00
55032;BME280;40928;51.076;7.950;2023-04-24T09:50:30;95911.66;;;5.11;100.00
55032;BME280;40928;51.076;7.950;2023-04-24T09:53:02;95913.34;;;5.17;100.00
55032;BME280;40928;51.076;7.950;2023-04-24T09:55:28;95910.72;;;5.17;100.00
55032;BME280;40928;51.076;7.950;2023-04-24T09:57:58;95931.78;;;4.88;100.00
55032;BME280;40928;51.076;7.950;2023-04-24T10:00:30;95915.31;;;4.86;100.00
55032;BME280;40928;51.076;7.950;2023-04-24T10:02:56;95935.91;;;4.84;100.00
55032;BME280;40928;51.076;7.950;2023-04-24T10:05:33;95934.06;;;4.84;100.00
55032;BME280;40928;51.076;7.950;2023-04-24T10:10:28;95947.06;;;4.86;100.00
55032;BME280;40928;51.076;7.950;2023-04-24T10:12:54;95955.56;;;4.88;100.00
55032;BME280;40928;51.076;7.950;2023-04-24T10:15:20;95956.50;;;4.82;100.00
55032;BME280;40928;51.076;7.950;2023-04-24T10:17:50;95954.22;;;4.97;100.00
55032;BME280;40928;51.076;7.950;2023-04-24T10:20:24;95955.81;;;4.98;100.00
55032;BME280;40928;51.076;7.950;2023-04-24T10:22:51;95967.81;;;5.13;100.00
55032;BME280;40928;51.076;7.950;2023-04-24T10:25:23;95970.53;;;5.18;100.00
55032;BME280;40928;51.076;7.950;2023-04-24T10:27:50;95975.59;;;5.31;100.00
55032;BME280;40928;51.076;7.950;2023-04-24T10:30:17;95972.75;;;5.45;100.00
55032;BME280;40928;51.076;7.950;2023-04-24T10:32:43;95980.31;;;5.53;100.00
55032;BME280;40928;51.076;7.950;2023-04-24T10:35:12;95979.53;;;5.53;100.00
55032;BME280;40928;51.076;7.950;2023-04-24T10:37:40;95988.13;;;5.60;100.00
55032;BME280;40928;51.076;7.950;2023-04-24T10:40:08;95988.34;;;5.70;100.00
55032;BME280;40928;51.076;7.950;2023-04-24T10:42:35;95985.47;;;5.72;100.00
55032;BME280;40928;51.076;7.950;2023-04-24T10:45:19;95992.59;;;5.71;100.00
55032;BME280;40928;51.076;7.950;2023-04-24T10:50:18;95996.38;;;5.87;100.00
55032;BME280;40928;51.076;7.950;2023-04-24T10:52:48;95995.94;;;5.90;100.00
55032;BME280;40928;51.076;7.950;2023-04-24T10:55:16;96011.69;;;5.97;100.00
55032;BME280;40928;51.076;7.950;2023-04-24T10:58:24;96018.03;;;5.84;100.00
55032;BME280;40928;51.076;7.950;2023-04-24T11:00:58;96013.06;;;5.88;100.00
55032;BME280;40928;51.076;7.950;2023-04-24T11:03:28;96037.06;;;6.05;100.00
55032;BME280;40928;51.076;7.950;2023-04-24T11:06:07;96039.78;;;6.10;100.00
55032;BME280;40928;51.076;7.950;2023-04-24T11:08:51;96048.88;;;6.14;100.00
55032;BME280;40928;51.076;7.950;2023-04-24T11:11:17;96041.97;;;6.13;100.00
55032;BME280;40928;51.076;7.950;2023-04-24T11:19:18;96056.72;;;6.09;100.00
55032;BME280;40928;51.076;7.950;2023-04-24T11:22:00;96063.44;;;6.00;100.00
55032;BME280;40928;51.076;7.950;2023-04-24T11:37:36;96080.34;;;6.22;100.00
55032;BME280;40928;51.076;7.950;2023-04-24T11:40:03;96078.25;;;6.24;100.00
55032;BME280;40928;51.076;7.950;2023-04-24T11:42:33;96086.63;;;6.45;100.00
55032;BME280;40928;51.076;7.950;2023-04-24T11:45:00;96085.81;;;6.45;100.00
55032;BME280;40928;51.076;7.950;2023-04-24T11:47:30;96080.38;;;6.51;100.00
55032;BME280;40928;51.076;7.950;2023-04-24T11:49:58;96082.19;;;6.63;100.00
55032;BME280;40928;51.076;7.950;2023-04-24T11:52:24;96095.63;;;6.73;100.00
55032;BME280;40928;51.076;7.950;2023-04-24T11:54:50;96088.81;;;6.77;100.00
55032;BME280;40928;51.076;7.950;2023-04-24T11:57:16;96100.47;;;6.76;100.00
55032;BME280;40928;51.076;7.950;2023-04-24T11:59:42;96098.72;;;6.82;100.00
55032;BME280;40928;51.076;7.950;2023-04-24T12:02:07;96089.94;;;6.81;100.00
55032;BME280;40928;51.076;7.950;2023-04-24T12:04:40;96103.22;;;6.81;100.00
55032;BME280;40928;51.076;7.950;2023-04-24T12:07:06;96107.81;;;6.86;100.00
55032;BME280;40928;51.076;7.950;2023-04-24T12:09:47;96112.22;;;6.80;100.00
55032;BME280;40928;51.076;7.950;2023-04-24T12:12:17;96117.66;;;6.74;100.00
55032;BME280;40928;51.076;7.950;2023-04-24T12:14:49;96129.00;;;6.69;100.00
55032;BME280;40928;51.076;7.950;2023-04-24T12:17:16;96128.41;;;6.67;100.00
55032;BME280;40928;51.076;7.950;2023-04-24T12:19:51;96131.88;;;6.67;100.00
55032;BME280;40928;51.076;7.950;2023-04-24T12:22:16;96145.28;;;6.49;100.00
55032;BME280;40928;51.076;7.950;2023-04-24T12:24:59;96135.28;;;6.39;100.00
55032;BME280;40928;51.076;7.950;2023-04-24T12:27:25;96148.44;;;6.34;100.00
55032;BME280;40928;51.076;7.950;2023-04-24T12:29:56;96154.09;;;6.25;100.00
55032;BME280;40928;51.076;7.950;2023-04-24T12:32:22;96152.59;;;6.30;100.00
55032;BME280;40928;51.076;7.950;2023-04-24T12:34:49;96147.66;;;6.21;100.00
55032;BME280;40928;51.076;7.950;2023-04-24T12:37:16;96146.25;;;6.43;100.00
55032;BME280;40928;51.076;7.950;2023-04-24T12:39:58;96143.31;;;6.68;100.00
55032;BME280;40928;51.076;7.950;2023-04-24T12:42:28;96144.03;;;6.92;100.00
55032;BME280;40928;51.076;7.950;2023-04-24T12:44:59;96145.00;;;7.03;100.00
55032;BME280;40928;51.076;7.950;2023-04-24T12:47:26;96143.44;;;7.19;100.00
55032;BME280;40928;51.076;7.950;2023-04-24T12:49:51;96144.91;;;7.27;100.00
55032;BME280;40928;51.076;7.950;2023-04-24T12:52:21;96137.31;;;7.19;100.00
55032;BME280;40928;51.076;7.950;2023-04-24T12:54:47;96146.78;;;7.43;100.00
55032;BME280;40928;51.076;7.950;2023-04-24T12:57:12;96161.25;;;7.53;100.00
55032;BME280;40928;51.076;7.950;2023-04-24T12:59:38;96149.34;;;7.55;100.00
55032;BME280;40928;51.076;7.950;2023-04-24T13:02:05;96154.38;;;7.69;100.00
55032;BME280;40928;51.076;7.950;2023-04-24T13:04:31;96152.72;;;7.51;100.00
55032;BME280;40928;51.076;7.950;2023-04-24T13:06:56;96153.38;;;7.58;100.00
55032;BME280;40928;51.076;7.950;2023-04-24T13:09:22;96148.81;;;7.53;100.00
55032;BME280;40928;51.076;7.950;2023-04-24T13:11:49;96153.28;;;7.53;100.00
55032;BME280;40928;51.076;7.950;2023-04-24T13:14:15;96156.69;;;7.48;100.00
55032;BME280;40928;51.076;7.950;2023-04-24T13:16:40;96162.63;;;7.38;100.00
55032;BME280;40928;51.076;7.950;2023-04-24T13:19:06;96164.63;;;7.31;100.00
55032;BME280;40928;51.076;7.950;2023-04-24T13:21:31;96165.69;;;7.30;100.00
55032;BME280;40928;51.076;7.950;2023-04-24T13:23:57;96169.84;;;7.26;100.00
55032;BME280;40928;51.076;7.950;2023-04-24T13:26:22;96171.53;;;7.32;100.00
55032;BME280;40928;51.076;7.950;2023-04-24T13:28:48;96171.06;;;7.35;100.00
55032;BME280;40928;51.076;7.950;2023-04-24T13:31:13;96170.72;;;7.31;100.00